createdAt,value
2015-09-23T00:00:11.516Z,0.81
2015-09-23T00:00:23.922Z,0.71
2015-09-23T00:00:36.375Z,0.74
2015-09-23T00:00:48.800Z,0.79
2015-09-23T00:01:01.237Z,0.67
2015-09-23T00:01:13.628Z,0.71
2015-09-23T00:01:26.019Z,0.67
2015-09-23T00:01:38.409Z,0.66
2015-09-23T00:01:50.819Z,0.71
2015-09-23T00:02:03.272Z,0.56
2015-09-23T00:02:15.662Z,0.61
2015-09-23T00:02:28.053Z,0.64
2015-09-23T00:02:40.475Z,0.64
2015-09-23T00:02:52.883Z,0.48
2015-09-23T00:03:05.305Z,0.57
2015-09-23T00:03:17.742Z,0.6
2015-09-23T00:03:30.180Z,0.61
2015-09-23T00:03:42.571Z,0.56
2015-09-23T00:03:55.042Z,0.52
2015-09-23T00:04:07.433Z,0.6
2015-09-23T00:04:19.839Z,0.56
2015-09-23T00:04:32.230Z,0.5
2015-09-23T00:04:44.480Z,0.48
2015-09-23T00:04:56.889Z,0.53
2015-09-23T00:05:09.295Z,0.53
2015-09-23T00:05:21.748Z,0.56
2015-09-23T00:05:34.186Z,0.41
2015-09-23T00:05:46.592Z,0.45
2015-09-23T00:05:58.267Z,0.47
2015-09-23T00:06:10.658Z,0.39
2015-09-23T00:06:23.048Z,0.56
2015-09-23T00:06:35.439Z,0.47
2015-09-23T00:06:47.830Z,0.52
2015-09-23T00:07:00.239Z,0.41
2015-09-23T00:07:12.645Z,0.47
2015-09-23T00:07:24.348Z,0.42
2015-09-23T00:07:36.770Z,0.39
2015-09-23T00:07:49.192Z,0.5
2015-09-23T00:08:01.631Z,0.38
2015-09-23T00:08:14.022Z,0.5
2015-09-23T00:08:26.413Z,0.57
2015-09-23T00:08:38.819Z,0.39
2015-09-23T00:08:51.194Z,0.53
2015-09-23T00:09:03.447Z,0.5
2015-09-23T00:09:15.838Z,0.39
2015-09-23T00:09:28.259Z,0.39
2015-09-23T00:09:40.666Z,0.41
2015-09-23T00:09:53.103Z,0.41
2015-09-23T00:10:05.528Z,0.47
2015-09-23T00:10:17.950Z,0.39
2015-09-23T00:10:30.372Z,0.52
2015-09-23T00:10:42.606Z,0.44
2015-09-23T00:10:54.997Z,0.44
2015-09-23T00:11:07.389Z,0.41
2015-09-23T00:11:19.077Z,0.44
2015-09-23T00:11:31.468Z,0.57
2015-09-23T00:11:43.858Z,0.57
2015-09-23T00:11:56.264Z,0.45
2015-09-23T00:12:08.689Z,0.5
2015-09-23T00:12:21.142Z,0.47
2015-09-23T00:12:33.580Z,0.44
2015-09-23T00:12:46.002Z,0.57
2015-09-23T00:12:58.395Z,0.5
2015-09-23T00:13:10.786Z,0.45
2015-09-23T00:13:23.192Z,0.53
2015-09-23T00:13:35.583Z,0.48
2015-09-23T00:13:47.974Z,0.52
2015-09-23T00:14:00.366Z,0.52
2015-09-23T00:14:12.757Z,0.39
2015-09-23T00:14:25.163Z,0.45
2015-09-23T00:14:37.601Z,0.45
2015-09-23T00:14:50.022Z,0.39
2015-09-23T00:15:02.416Z,0.44
2015-09-23T00:15:14.807Z,0.44
2015-09-23T00:15:27.197Z,0.53
2015-09-23T00:15:39.588Z,0.56
2015-09-23T00:15:51.979Z,0.44
2015-09-23T00:16:04.388Z,0.39
2015-09-23T00:16:16.825Z,0.37
2015-09-23T00:16:29.263Z,0.45
2015-09-23T00:16:41.653Z,0.44
2015-09-23T00:16:54.310Z,0.42
2015-09-23T00:17:06.703Z,0.35
2015-09-23T00:17:19.110Z,0.39
2015-09-23T00:17:31.500Z,0.42
2015-09-23T00:17:43.891Z,0.35
2015-09-23T00:17:56.297Z,0.38
2015-09-23T00:18:08.721Z,0.37
2015-09-23T00:18:21.158Z,0.38
2015-09-23T00:18:33.580Z,0.35
2015-09-23T00:18:45.987Z,0.34
2015-09-23T00:18:58.377Z,0.32
2015-09-23T00:19:10.771Z,0.39
2015-09-23T00:19:23.161Z,0.35
2015-09-23T00:19:35.568Z,0.26
2015-09-23T00:19:47.958Z,0.26
2015-09-23T00:20:00.349Z,0.31
2015-09-23T00:20:12.774Z,0.27
2015-09-23T00:20:25.180Z,0.24
2015-09-23T00:20:37.602Z,0.28
2015-09-23T00:20:50.024Z,0.26
2015-09-23T00:21:02.461Z,0.28
2015-09-23T00:21:14.135Z,0.32
2015-09-23T00:21:26.401Z,0.28
2015-09-23T00:21:38.791Z,0.32
2015-09-23T00:21:51.198Z,0.27
2015-09-23T00:22:03.604Z,0.31
2015-09-23T00:22:15.998Z,0.31
2015-09-23T00:22:28.404Z,0.27
2015-09-23T00:22:40.810Z,0.2
2015-09-23T00:22:53.216Z,0.27
2015-09-23T00:23:05.669Z,0.2
2015-09-23T00:23:18.063Z,0.32
2015-09-23T00:23:30.454Z,0.24
2015-09-23T00:23:42.860Z,0.24
2015-09-23T00:23:54.532Z,0.24
2015-09-23T00:24:06.938Z,0.23
2015-09-23T00:24:19.332Z,0.23
2015-09-23T00:24:31.738Z,0.16
2015-09-23T00:24:44.144Z,0.23
2015-09-23T00:24:56.550Z,0.24
2015-09-23T00:25:08.972Z,0.23
2015-09-23T00:25:21.366Z,0.19
2015-09-23T00:25:33.788Z,0.24
2015-09-23T00:25:46.210Z,0.19
2015-09-23T00:25:58.585Z,0.21
2015-09-23T00:26:10.994Z,0.26
2015-09-23T00:26:23.385Z,0.19
2015-09-23T00:26:35.791Z,0.19
2015-09-23T00:26:48.181Z,0.23
2015-09-23T00:27:00.447Z,0.19
2015-09-23T00:27:12.183Z,0.16
2015-09-23T00:27:24.574Z,0.06
2015-09-23T00:27:36.965Z,0.2
2015-09-23T00:27:49.340Z,0.19
2015-09-23T00:28:01.746Z,0.08
2015-09-23T00:28:14.154Z,0.16
2015-09-23T00:28:26.545Z,0.19
2015-09-23T00:28:38.951Z,0.24
2015-09-23T00:28:51.357Z,0.17
2015-09-23T00:29:03.795Z,0.19
2015-09-23T00:29:16.220Z,0.2
2015-09-23T00:29:28.642Z,0.08
2015-09-23T00:29:41.032Z,0.2
2015-09-23T00:29:53.423Z,0.14
2015-09-23T00:30:05.829Z,0.08
2015-09-23T00:30:18.254Z,0.21
2015-09-23T00:30:30.645Z,0.05
2015-09-23T00:30:43.051Z,0.1
2015-09-23T00:30:55.457Z,0.05
2015-09-23T00:31:07.879Z,0.21
2015-09-23T00:31:20.304Z,0.05
2015-09-23T00:31:32.741Z,0.09
2015-09-23T00:31:45.148Z,0.05
2015-09-23T00:31:57.554Z,0.13
2015-09-23T00:32:09.944Z,0.05
2015-09-23T00:32:22.354Z,0.09
2015-09-23T00:32:34.744Z,0.16
2015-09-23T00:32:47.151Z,0.14
2015-09-23T00:32:59.541Z,0.09
2015-09-23T00:33:11.932Z,0.13
2015-09-23T00:33:24.356Z,0.16
2015-09-23T00:33:36.778Z,0.06
2015-09-23T00:33:49.199Z,0.13
2015-09-23T00:34:01.637Z,0.17
2015-09-23T00:34:14.028Z,0.14
2015-09-23T00:34:26.421Z,0.06
2015-09-23T00:34:38.843Z,0.1
2015-09-23T00:34:51.234Z,0.09
2015-09-23T00:35:03.624Z,0.08
2015-09-23T00:35:16.079Z,0.14
2015-09-23T00:35:28.470Z,0.17
2015-09-23T00:35:40.892Z,0.08
2015-09-23T00:35:52.454Z,0.14
2015-09-23T00:36:04.876Z,0.19
2015-09-23T00:36:17.271Z,0.19
2015-09-23T00:36:29.662Z,0.05
2015-09-23T00:36:41.333Z,0.2
2015-09-23T00:36:53.740Z,0.16
2015-09-23T00:37:06.146Z,0.17
2015-09-23T00:37:18.523Z,0.14
2015-09-23T00:37:30.929Z,0.1
2015-09-23T00:37:43.335Z,0.08
2015-09-23T00:37:55.742Z,0.06
2015-09-23T00:38:08.179Z,0.14
2015-09-23T00:38:20.479Z,0.05
2015-09-23T00:38:32.901Z,0.13
2015-09-23T00:38:45.292Z,0.05
2015-09-23T00:38:57.682Z,0.06
2015-09-23T00:39:10.073Z,0.08
2015-09-23T00:39:22.466Z,0.03
2015-09-23T00:39:34.857Z,0.09
2015-09-23T00:39:46.545Z,0.09
2015-09-23T00:39:58.982Z,0.09
2015-09-23T00:40:11.373Z,0.14
2015-09-23T00:40:23.813Z,0.08
2015-09-23T00:40:36.235Z,0.17
2015-09-23T00:40:48.626Z,0.21
2015-09-23T00:41:00.313Z,0.05
2015-09-23T00:41:12.704Z,0.02
2015-09-23T00:41:25.096Z,0.03
2015-09-23T00:41:37.503Z,0.06
2015-09-23T00:41:49.878Z,0.05
2015-09-23T00:42:02.284Z,0.14
2015-09-23T00:42:14.706Z,0.23
2015-09-23T00:42:27.145Z,0.09
2015-09-23T00:42:39.552Z,0.13
2015-09-23T00:42:51.958Z,0.16
2015-09-23T00:43:04.348Z,0.13
2015-09-23T00:43:16.739Z,0.17
2015-09-23T00:43:29.149Z,0.08
2015-09-23T00:43:41.540Z,0.09
2015-09-23T00:43:53.931Z,0.03
2015-09-23T00:44:06.337Z,0.13
2015-09-23T00:44:18.743Z,0.06
2015-09-23T00:44:31.167Z,0.1
2015-09-23T00:44:43.589Z,0.19
2015-09-23T00:44:56.011Z,0.23
2015-09-23T00:45:08.401Z,0.19
2015-09-23T00:45:20.776Z,0.06
2015-09-23T00:45:33.154Z,0.17
2015-09-23T00:45:45.545Z,0.08
2015-09-23T00:45:57.920Z,0.08
2015-09-23T00:46:10.311Z,0.1
2015-09-23T00:46:22.764Z,0.1
2015-09-23T00:46:35.157Z,0.06
2015-09-23T00:46:47.564Z,0.09
2015-09-23T00:47:00.001Z,0.14
2015-09-23T00:47:12.392Z,0.06
2015-09-23T00:47:24.784Z,0.16
2015-09-23T00:47:37.191Z,0.1
2015-09-23T00:47:49.581Z,0.1
2015-09-23T00:48:01.972Z,0.14
2015-09-23T00:48:14.362Z,0.16
2015-09-23T00:48:26.615Z,0.05
2015-09-23T00:48:39.022Z,0.08
2015-09-23T00:48:51.459Z,0.1
2015-09-23T00:49:03.912Z,0.09
2015-09-23T00:49:16.319Z,0.02
2015-09-23T00:49:28.774Z,0.06
2015-09-23T00:49:41.180Z,0.03
2015-09-23T00:49:53.555Z,0.08
2015-09-23T00:50:05.961Z,0.08
2015-09-23T00:50:18.352Z,0.08
2015-09-23T00:50:30.778Z,0.06
2015-09-23T00:50:43.184Z,0.06
2015-09-23T00:50:55.606Z,0.09
2015-09-23T00:51:08.043Z,0.06
2015-09-23T00:51:20.465Z,0.09
2015-09-23T00:51:32.873Z,0.08
2015-09-23T00:51:45.264Z,0.08
2015-09-23T00:51:57.686Z,0.08
2015-09-23T00:52:10.077Z,0.09
2015-09-23T00:52:22.483Z,0.05
2015-09-23T00:52:34.876Z,0.06
2015-09-23T00:52:47.283Z,0.1
2015-09-23T00:52:59.689Z,0.06
2015-09-23T00:53:12.111Z,0.08
2015-09-23T00:53:24.595Z,0.09
2015-09-23T00:53:36.864Z,0.05
2015-09-23T00:53:49.301Z,0.09
2015-09-23T00:54:01.692Z,0.02
2015-09-23T00:54:14.083Z,0.06
2015-09-23T00:54:26.489Z,0.06
2015-09-23T00:54:38.881Z,0.06
2015-09-23T00:54:51.288Z,0.1
2015-09-23T00:55:03.678Z,-0.01
2015-09-23T00:55:16.085Z,0.05
2015-09-23T00:55:28.491Z,0.06
2015-09-23T00:55:40.916Z,0.09
2015-09-23T00:55:53.338Z,0.09
2015-09-23T00:56:05.759Z,0.09
2015-09-23T00:56:18.166Z,0.1
2015-09-23T00:56:30.416Z,0.13
2015-09-23T00:56:42.809Z,0.08
2015-09-23T00:56:55.200Z,0.14
2015-09-23T00:57:07.591Z,0.05
2015-09-23T00:57:19.997Z,0.14
2015-09-23T00:57:31.669Z,0.16
2015-09-23T00:57:44.078Z,0.1
2015-09-23T00:57:56.500Z,0.03
2015-09-23T00:58:08.937Z,0.09
2015-09-23T00:58:21.375Z,0.08
2015-09-23T00:58:33.640Z,0.05
2015-09-23T00:58:46.033Z,0.09
2015-09-23T00:58:58.424Z,0.06
2015-09-23T00:59:10.814Z,0.05
2015-09-23T00:59:22.502Z,0.14
2015-09-23T00:59:34.895Z,-0.02
2015-09-23T00:59:47.286Z,0.03
2015-09-23T00:59:59.708Z,-0.07
2015-09-23T01:00:12.114Z,-0.02
2015-09-23T01:00:24.364Z,0.02
2015-09-23T01:00:36.820Z,0.01
2015-09-23T01:00:49.211Z,0.03
2015-09-23T01:01:01.602Z,-0.07
2015-09-23T01:01:14.070Z,-0.07
2015-09-23T01:01:26.461Z,0.01
2015-09-23T01:01:38.854Z,-0.09
2015-09-23T01:01:51.510Z,-0.05
2015-09-23T01:02:03.932Z,-0.01
2015-09-23T01:02:16.338Z,-0.09
2015-09-23T01:02:28.775Z,-0.07
2015-09-23T01:02:40.482Z,-0.1
2015-09-23T01:02:52.966Z,-0.12
2015-09-23T01:03:05.388Z,-0.09
2015-09-23T01:03:17.794Z,-0.07
2015-09-23T01:03:30.185Z,-0.1
2015-09-23T01:03:42.577Z,-0.04
2015-09-23T01:03:54.984Z,-0.02
2015-09-23T01:04:07.390Z,0.03
2015-09-23T01:04:19.796Z,-0.09
2015-09-23T01:04:32.046Z,-0.02
2015-09-23T01:04:44.456Z,0.03
2015-09-23T01:04:56.894Z,-0.05
2015-09-23T01:05:09.316Z,-0.04
2015-09-23T01:05:21.706Z,-0.07
2015-09-23T01:05:34.097Z,-0.13
2015-09-23T01:05:46.505Z,-0.02
2015-09-23T01:05:58.911Z,-0.01
2015-09-23T01:06:11.318Z,-0.07
2015-09-23T01:06:23.708Z,-0.13
2015-09-23T01:06:36.099Z,-0.01
2015-09-23T01:06:48.508Z,-0.15
2015-09-23T01:07:00.961Z,-0.02
2015-09-23T01:07:13.414Z,-0.04
2015-09-23T01:07:25.821Z,-0.13
2015-09-23T01:07:38.227Z,-0.05
2015-09-23T01:07:50.621Z,0.03
2015-09-23T01:08:03.027Z,0.03
2015-09-23T01:08:15.464Z,-0.15
2015-09-23T01:08:27.886Z,-0.1
2015-09-23T01:08:40.279Z,-0.02
2015-09-23T01:08:52.701Z,-0.09
2015-09-23T01:09:05.123Z,-0.1
2015-09-23T01:09:17.607Z,0.03
2015-09-23T01:09:30.013Z,-0.04
2015-09-23T01:09:42.407Z,-0.1
2015-09-23T01:09:54.797Z,-0.04
2015-09-23T01:10:07.188Z,-0.01
2015-09-23T01:10:19.579Z,0.01
2015-09-23T01:10:31.969Z,0.01
2015-09-23T01:10:44.394Z,0.03
2015-09-23T01:10:56.785Z,-0.07
2015-09-23T01:11:09.222Z,-0.1
2015-09-23T01:11:21.644Z,-0.01
2015-09-23T01:11:34.066Z,-0.05
2015-09-23T01:11:46.491Z,0.01
2015-09-23T01:11:58.866Z,-0.1
2015-09-23T01:12:11.257Z,-0.04
2015-09-23T01:12:23.647Z,-0.05
2015-09-23T01:12:36.053Z,-0.1
2015-09-23T01:12:48.290Z,-0.1
2015-09-23T01:13:00.727Z,-0.1
2015-09-23T01:13:13.134Z,-0.09
2015-09-23T01:13:25.540Z,-0.13
2015-09-23T01:13:37.977Z,-0.13
2015-09-23T01:13:50.387Z,-0.16
2015-09-23T01:14:02.762Z,-0.18
2015-09-23T01:14:15.168Z,-0.12
2015-09-23T01:14:27.558Z,-0.1
2015-09-23T01:14:39.949Z,-0.15
2015-09-23T01:14:52.358Z,-0.19
2015-09-23T01:15:04.765Z,-0.2
2015-09-23T01:15:17.202Z,-0.07
2015-09-23T01:15:29.608Z,-0.19
2015-09-23T01:15:42.046Z,-0.25
2015-09-23T01:15:54.424Z,-0.3
2015-09-23T01:16:06.846Z,-0.27
2015-09-23T01:16:19.236Z,-0.27
2015-09-23T01:16:31.627Z,-0.27
2015-09-23T01:16:44.020Z,-0.36
2015-09-23T01:16:56.426Z,-0.37
2015-09-23T01:17:08.676Z,-0.36
2015-09-23T01:17:21.098Z,-0.34
2015-09-23T01:17:33.582Z,-0.43
2015-09-23T01:17:45.976Z,-0.28
2015-09-23T01:17:58.366Z,-0.28
2015-09-23T01:18:10.773Z,-0.38
2015-09-23T01:18:23.163Z,-0.3
2015-09-23T01:18:35.554Z,-0.38
2015-09-23T01:18:47.963Z,-0.34
2015-09-23T01:19:00.369Z,-0.4
2015-09-23T01:19:12.885Z,-0.4
2015-09-23T01:19:25.307Z,-0.48
2015-09-23T01:19:36.963Z,-0.46
2015-09-23T01:19:49.356Z,-0.38
2015-09-23T01:20:01.762Z,-0.41
2015-09-23T01:20:14.153Z,-0.46
2015-09-23T01:20:26.559Z,-0.48
2015-09-23T01:20:38.949Z,-0.46
2015-09-23T01:20:51.359Z,-0.37
2015-09-23T01:21:03.781Z,-0.46
2015-09-23T01:21:16.187Z,-0.62
2015-09-23T01:21:28.609Z,-0.51
2015-09-23T01:21:41.015Z,-0.54
2015-09-23T01:21:53.409Z,-0.58
2015-09-23T01:22:05.799Z,-0.59
2015-09-23T01:22:17.487Z,-0.74
2015-09-23T01:22:29.893Z,-0.74
2015-09-23T01:22:42.284Z,-0.74
2015-09-23T01:22:54.707Z,-0.82
2015-09-23T01:23:07.114Z,-0.85
2015-09-23T01:23:19.551Z,-0.91
2015-09-23T01:23:31.957Z,-0.85
2015-09-23T01:23:44.348Z,-0.91
2015-09-23T01:23:56.742Z,-0.98
2015-09-23T01:24:09.148Z,-0.93
2015-09-23T01:24:21.554Z,-1.03
2015-09-23T01:24:33.960Z,-1.13
2015-09-23T01:24:46.398Z,-0.98
2015-09-23T01:24:58.823Z,-1.09
2015-09-23T01:25:11.260Z,-1.09
2015-09-23T01:25:23.651Z,-1.14
2015-09-23T01:25:36.042Z,-1.19
2015-09-23T01:25:48.432Z,-1.24
2015-09-23T01:26:00.825Z,-1.31
2015-09-23T01:26:13.262Z,-1.25
2015-09-23T01:26:25.653Z,-1.31
2015-09-23T01:26:38.028Z,-1.24
2015-09-23T01:26:50.437Z,-1.27
2015-09-23T01:27:02.843Z,-1.35
2015-09-23T01:27:15.265Z,-1.32
2015-09-23T01:27:27.687Z,-1.37
2015-09-23T01:27:40.125Z,-1.46
2015-09-23T01:27:52.518Z,-1.56
2015-09-23T01:28:04.909Z,-1.48
2015-09-23T01:28:17.300Z,-1.52
2015-09-23T01:28:29.690Z,-1.53
2015-09-23T01:28:42.081Z,-1.63
2015-09-23T01:28:54.473Z,-1.61
2015-09-23T01:29:06.880Z,-1.61
2015-09-23T01:29:19.286Z,-1.61
2015-09-23T01:29:31.708Z,-1.61
2015-09-23T01:29:44.130Z,-1.6
2015-09-23T01:29:56.539Z,-1.67
2015-09-23T01:30:08.945Z,-1.68
2015-09-23T01:30:21.336Z,-1.63
2015-09-23T01:30:33.726Z,-1.78
2015-09-23T01:30:46.148Z,-1.73
2015-09-23T01:30:58.542Z,-1.74
2015-09-23T01:31:10.948Z,-1.74
2015-09-23T01:31:23.354Z,-1.79
2015-09-23T01:31:35.776Z,-1.71
2015-09-23T01:31:48.183Z,-1.88
2015-09-23T01:32:00.623Z,-1.78
2015-09-23T01:32:13.029Z,-1.79
2015-09-23T01:32:24.717Z,-1.88
2015-09-23T01:32:37.107Z,-1.88
2015-09-23T01:32:48.795Z,-1.84
2015-09-23T01:33:01.189Z,-1.88
2015-09-23T01:33:13.579Z,-1.85
2015-09-23T01:33:25.970Z,-1.89
2015-09-23T01:33:38.376Z,-1.92
2015-09-23T01:33:50.767Z,-1.92
2015-09-23T01:34:03.191Z,-1.86
2015-09-23T01:34:15.659Z,-1.89
2015-09-23T01:34:28.050Z,-1.85
2015-09-23T01:34:40.284Z,-1.88
2015-09-23T01:34:52.675Z,-1.85
2015-09-23T01:35:05.069Z,-1.89
2015-09-23T01:35:17.475Z,-1.92
2015-09-23T01:35:29.865Z,-1.92
2015-09-23T01:35:42.272Z,-1.88
2015-09-23T01:35:54.662Z,-1.89
2015-09-23T01:36:07.086Z,-1.94
2015-09-23T01:36:19.508Z,-1.89
2015-09-23T01:36:31.930Z,-1.99
2015-09-23T01:36:44.352Z,-1.94
2015-09-23T01:36:56.742Z,-1.92
2015-09-23T01:37:09.153Z,-1.96
2015-09-23T01:37:21.543Z,-1.97
2015-09-23T01:37:33.950Z,-1.94
2015-09-23T01:37:46.340Z,-1.94
2015-09-23T01:37:58.748Z,-1.99
2015-09-23T01:38:11.155Z,-1.94
2015-09-23T01:38:23.592Z,-1.96
2015-09-23T01:38:36.014Z,-1.85
2015-09-23T01:38:48.452Z,-1.94
2015-09-23T01:39:00.892Z,-1.99
2015-09-23T01:39:13.298Z,-1.96
2015-09-23T01:39:25.689Z,-2.02
2015-09-23T01:39:38.080Z,-1.96
2015-09-23T01:39:50.470Z,-2
2015-09-23T01:40:02.864Z,-1.99
2015-09-23T01:40:15.254Z,-1.97
2015-09-23T01:40:27.661Z,-1.99
2015-09-23T01:40:40.083Z,-1.96
2015-09-23T01:40:52.504Z,-2
2015-09-23T01:41:04.913Z,-1.97
2015-09-23T01:41:17.319Z,-1.99
2015-09-23T01:41:29.710Z,-2.03
2015-09-23T01:41:42.100Z,-2.03
2015-09-23T01:41:54.506Z,-2.09
2015-09-23T01:42:06.916Z,-2.03
2015-09-23T01:42:19.338Z,-2.05
2015-09-23T01:42:31.759Z,-2.06
2015-09-23T01:42:44.181Z,-2.05
2015-09-23T01:42:56.572Z,-2.06
2015-09-23T01:43:08.981Z,-2.06
2015-09-23T01:43:21.372Z,-2.1
2015-09-23T01:43:33.762Z,-2.05
2015-09-23T01:43:46.169Z,-2.12
2015-09-23T01:43:58.559Z,-2.14
2015-09-23T01:44:10.968Z,-2.06
2015-09-23T01:44:22.655Z,-2.12
2015-09-23T01:44:35.077Z,-2.17
2015-09-23T01:44:47.483Z,-2.15
2015-09-23T01:44:59.921Z,-2.12
2015-09-23T01:45:12.362Z,-2.15
2015-09-23T01:45:24.753Z,-2.1
2015-09-23T01:45:37.143Z,-2.15
2015-09-23T01:45:49.518Z,-2.09
2015-09-23T01:46:01.909Z,-2.21
2015-09-23T01:46:14.334Z,-2.1
2015-09-23T01:46:26.725Z,-2.15
2015-09-23T01:46:39.131Z,-2.17
2015-09-23T01:46:51.537Z,-2.15
2015-09-23T01:47:03.959Z,-2.17
2015-09-23T01:47:16.398Z,-2.18
2015-09-23T01:47:28.805Z,-2.28
2015-09-23T01:47:39.773Z,-2.24
2015-09-23T01:47:52.164Z,-2.3
2015-09-23T01:48:04.555Z,-2.27
2015-09-23T01:48:16.964Z,-2.3
2015-09-23T01:48:29.355Z,-2.28
2015-09-23T01:48:41.745Z,-2.28
2015-09-23T01:48:54.136Z,-2.3
2015-09-23T01:49:06.542Z,-2.23
2015-09-23T01:49:18.950Z,-2.32
2015-09-23T01:49:31.372Z,-2.28
2015-09-23T01:49:43.810Z,-2.34
2015-09-23T01:49:56.200Z,-2.28
2015-09-23T01:50:08.591Z,-2.34
2015-09-23T01:50:20.985Z,-2.32
2015-09-23T01:50:33.375Z,-2.34
2015-09-23T01:50:45.641Z,-2.4
2015-09-23T01:50:58.031Z,-2.36
2015-09-23T01:51:10.422Z,-2.3
2015-09-23T01:51:22.831Z,-2.44
2015-09-23T01:51:35.253Z,-2.36
2015-09-23T01:51:47.659Z,-2.32
2015-09-23T01:52:00.097Z,-2.44
2015-09-23T01:52:12.519Z,-2.36
2015-09-23T01:52:24.771Z,-2.44
2015-09-23T01:52:37.161Z,-2.43
2015-09-23T01:52:49.552Z,-2.42
2015-09-23T01:53:01.958Z,-2.49
2015-09-23T01:53:14.352Z,-2.47
2015-09-23T01:53:26.743Z,-2.53
2015-09-23T01:53:39.149Z,-2.46
2015-09-23T01:53:51.555Z,-2.37
2015-09-23T01:54:03.993Z,-2.42
2015-09-23T01:54:16.417Z,-2.44
2015-09-23T01:54:28.855Z,-2.53
2015-09-23T01:54:41.246Z,-2.46
2015-09-23T01:54:53.636Z,-2.53
2015-09-23T01:55:06.027Z,-2.55
2015-09-23T01:55:18.420Z,-2.47
2015-09-23T01:55:30.827Z,-2.58
2015-09-23T01:55:43.233Z,-2.55
2015-09-23T01:55:55.889Z,-2.58
2015-09-23T01:56:08.280Z,-2.55
2015-09-23T01:56:20.705Z,-2.46
2015-09-23T01:56:33.127Z,-2.53
2015-09-23T01:56:45.533Z,-2.5
2015-09-23T01:56:57.064Z,-2.6
2015-09-23T01:57:09.455Z,-2.58
2015-09-23T01:57:21.863Z,-2.61
2015-09-23T01:57:34.269Z,-2.62
2015-09-23T01:57:45.957Z,-2.55
2015-09-23T01:57:58.332Z,-2.49
2015-09-23T01:58:10.738Z,-2.64
2015-09-23T01:58:23.163Z,-2.55
2015-09-23T01:58:35.585Z,-2.5
2015-09-23T01:58:48.022Z,-2.49
2015-09-23T01:59:00.413Z,-2.53
2015-09-23T01:59:12.803Z,-2.55
2015-09-23T01:59:25.196Z,-2.54
2015-09-23T01:59:37.587Z,-2.61
2015-09-23T01:59:49.993Z,-2.58
2015-09-23T02:00:02.384Z,-2.6
2015-09-23T02:00:14.805Z,-2.55
2015-09-23T02:00:27.230Z,-2.62
2015-09-23T02:00:39.668Z,-2.62
2015-09-23T02:00:52.090Z,-2.54
2015-09-23T02:01:04.496Z,-2.6
2015-09-23T02:01:16.186Z,-2.6
2015-09-23T02:01:28.561Z,-2.6
2015-09-23T02:01:40.968Z,-2.5
2015-09-23T02:01:53.343Z,-2.6
2015-09-23T02:02:05.749Z,-2.62
2015-09-23T02:02:18.143Z,-2.65
2015-09-23T02:02:30.549Z,-2.65
2015-09-23T02:02:42.986Z,-2.67
2015-09-23T02:02:55.408Z,-2.7
2015-09-23T02:03:07.799Z,-2.73
2015-09-23T02:03:20.208Z,-2.76
2015-09-23T02:03:32.599Z,-2.7
2015-09-23T02:03:45.005Z,-2.62
2015-09-23T02:03:57.380Z,-2.61
2015-09-23T02:04:09.786Z,-2.72
2015-09-23T02:04:22.179Z,-2.64
2015-09-23T02:04:33.866Z,-2.64
2015-09-23T02:04:46.273Z,-2.65
2015-09-23T02:04:58.679Z,-2.62
2015-09-23T02:05:11.101Z,-2.64
2015-09-23T02:05:23.494Z,-2.58
2015-09-23T02:05:35.885Z,-2.62
2015-09-23T02:05:48.291Z,-2.73
2015-09-23T02:06:00.682Z,-2.62
2015-09-23T02:06:13.072Z,-2.7
2015-09-23T02:06:25.465Z,-2.62
2015-09-23T02:06:37.871Z,-2.68
2015-09-23T02:06:50.262Z,-2.62
2015-09-23T02:07:02.684Z,-2.6
2015-09-23T02:07:15.090Z,-2.61
2015-09-23T02:07:27.499Z,-2.68
2015-09-23T02:07:39.890Z,-2.7
2015-09-23T02:07:52.296Z,-2.68
2015-09-23T02:08:04.687Z,-2.67
2015-09-23T02:08:17.077Z,-2.72
2015-09-23T02:08:29.487Z,-2.7
2015-09-23T02:08:41.877Z,-2.64
2015-09-23T02:08:54.284Z,-2.75
2015-09-23T02:09:06.690Z,-2.65
2015-09-23T02:09:19.096Z,-2.67
2015-09-23T02:09:31.521Z,-2.76
2015-09-23T02:09:43.912Z,-2.73
2015-09-23T02:09:56.318Z,-2.67
2015-09-23T02:10:08.693Z,-2.76
2015-09-23T02:10:21.083Z,-2.68
2015-09-23T02:10:33.492Z,-2.7
2015-09-23T02:10:45.882Z,-2.78
2015-09-23T02:10:58.289Z,-2.64
2015-09-23T02:11:10.695Z,-2.72
2015-09-23T02:11:23.117Z,-2.7
2015-09-23T02:11:35.557Z,-2.75
2015-09-23T02:11:47.979Z,-2.79
2015-09-23T02:12:00.385Z,-2.68
2015-09-23T02:12:12.776Z,-2.79
2015-09-23T02:12:25.198Z,-2.7
2015-09-23T02:12:37.591Z,-2.7
2015-09-23T02:12:49.998Z,-2.7
2015-09-23T02:13:02.404Z,-2.75
2015-09-23T02:13:14.795Z,-2.7
2015-09-23T02:13:27.201Z,-2.68
2015-09-23T02:13:39.625Z,-2.72
2015-09-23T02:13:52.047Z,-2.78
2015-09-23T02:14:04.437Z,-2.68
2015-09-23T02:14:16.828Z,-2.73
2015-09-23T02:14:29.237Z,-2.75
2015-09-23T02:14:41.628Z,-2.72
2015-09-23T02:14:54.034Z,-2.76
2015-09-23T02:15:06.425Z,-2.65
2015-09-23T02:15:18.831Z,-2.7
2015-09-23T02:15:31.240Z,-2.76
2015-09-23T02:15:43.647Z,-2.72
2015-09-23T02:15:56.069Z,-2.76
2015-09-23T02:16:08.491Z,-2.67
2015-09-23T02:16:20.882Z,-2.78
2015-09-23T02:16:33.274Z,-2.73
2015-09-23T02:16:45.665Z,-2.78
2015-09-23T02:16:58.056Z,-2.79
2015-09-23T02:17:10.446Z,-2.75
2015-09-23T02:17:22.837Z,-2.76
2015-09-23T02:17:35.247Z,-2.76
2015-09-23T02:17:47.638Z,-2.76
2015-09-23T02:18:00.060Z,-2.75
2015-09-23T02:18:12.481Z,-2.76
2015-09-23T02:18:24.888Z,-2.76
2015-09-23T02:18:37.296Z,-2.78
2015-09-23T02:18:49.687Z,-2.83
2015-09-23T02:19:02.093Z,-2.81
2015-09-23T02:19:14.483Z,-2.75
2015-09-23T02:19:26.874Z,-2.82
2015-09-23T02:19:39.283Z,-2.79
2015-09-23T02:19:51.690Z,-2.78
2015-09-23T02:20:04.111Z,-2.78
2015-09-23T02:20:16.533Z,-2.83
2015-09-23T02:20:28.955Z,-2.9
2015-09-23T02:20:41.349Z,-2.88
2015-09-23T02:20:53.739Z,-2.78
2015-09-23T02:21:06.146Z,-2.91
2015-09-23T02:21:18.568Z,-2.79
2015-09-23T02:21:30.974Z,-2.85
2015-09-23T02:21:43.366Z,-2.83
2015-09-23T02:21:55.788Z,-2.86
2015-09-23T02:22:07.491Z,-2.96
2015-09-23T02:22:19.913Z,-2.93
2015-09-23T02:22:32.351Z,-2.94
2015-09-23T02:22:44.776Z,-2.88
2015-09-23T02:22:57.198Z,-2.9
2015-09-23T02:23:09.588Z,-2.93
2015-09-23T02:23:21.994Z,-2.91
2015-09-23T02:23:34.385Z,-2.99
2015-09-23T02:23:46.779Z,-2.9
2015-09-23T02:23:59.201Z,-2.99
2015-09-23T02:24:11.591Z,-2.94
2015-09-23T02:24:23.997Z,-2.9
2015-09-23T02:24:36.404Z,-2.91
2015-09-23T02:24:48.844Z,-2.91
2015-09-23T02:25:01.266Z,-2.86
2015-09-23T02:25:13.688Z,-2.97
2015-09-23T02:25:26.079Z,-2.96
2015-09-23T02:25:38.485Z,-2.99
2015-09-23T02:25:50.877Z,-2.88
2015-09-23T02:26:02.565Z,-2.97
2015-09-23T02:26:14.956Z,-3.07
2015-09-23T02:26:27.362Z,-2.91
2015-09-23T02:26:39.768Z,-2.91
2015-09-23T02:26:52.193Z,-2.91
2015-09-23T02:27:04.615Z,-3.07
2015-09-23T02:27:17.068Z,-3.04
2015-09-23T02:27:29.490Z,-3.06
2015-09-23T02:27:41.880Z,-2.96
2015-09-23T02:27:54.274Z,-2.99
2015-09-23T02:28:06.665Z,-3.04
2015-09-23T02:28:19.071Z,-3.03
2015-09-23T02:28:31.462Z,-3.11
2015-09-23T02:28:43.854Z,-3.12
2015-09-23T02:28:56.260Z,-3.11
2015-09-23T02:29:08.667Z,-3.12
2015-09-23T02:29:21.104Z,-3.07
2015-09-23T02:29:33.542Z,-3.14
2015-09-23T02:29:45.983Z,-3.12
2015-09-23T02:29:58.374Z,-3.14
2015-09-23T02:30:10.764Z,-3.12
2015-09-23T02:30:23.155Z,-3.09
2015-09-23T02:30:35.546Z,-3.07
2015-09-23T02:30:47.938Z,-3.14
2015-09-23T02:31:00.329Z,-3.11
2015-09-23T02:31:12.735Z,-3.09
2015-09-23T02:31:25.141Z,-3.09
2015-09-23T02:31:37.579Z,-3.15
2015-09-23T02:31:50.004Z,-3.12
2015-09-23T02:32:02.394Z,-3.07
2015-09-23T02:32:14.785Z,-3.12
2015-09-23T02:32:27.176Z,-3.14
2015-09-23T02:32:39.566Z,-3.09
2015-09-23T02:32:51.959Z,-3.12
2015-09-23T02:33:04.350Z,-3.17
2015-09-23T02:33:16.756Z,-3.21
2015-09-23T02:33:29.178Z,-3.15
2015-09-23T02:33:41.475Z,-3.07
2015-09-23T02:33:53.899Z,-3.15
2015-09-23T02:34:06.321Z,-3.14
2015-09-23T02:34:18.712Z,-3.07
2015-09-23T02:34:31.118Z,-3.12
2015-09-23T02:34:43.509Z,-3.15
2015-09-23T02:34:55.934Z,-3.14
2015-09-23T02:35:08.356Z,-3.12
2015-09-23T02:35:20.777Z,-3.14
2015-09-23T02:35:33.199Z,-3.14
2015-09-23T02:35:45.590Z,-3.11
2015-09-23T02:35:57.983Z,-3.14
2015-09-23T02:36:10.389Z,-3.17
2015-09-23T02:36:22.779Z,-3.19
2015-09-23T02:36:35.186Z,-3.15
2015-09-23T02:36:47.576Z,-3.18
2015-09-23T02:36:59.970Z,-3.21
2015-09-23T02:37:12.392Z,-3.19
2015-09-23T02:37:24.798Z,-3.21
2015-09-23T02:37:37.220Z,-3.14
2015-09-23T02:37:49.657Z,-3.24
2015-09-23T02:38:02.082Z,-3.25
2015-09-23T02:38:14.473Z,-3.19
2015-09-23T02:38:26.864Z,-3.14
2015-09-23T02:38:39.270Z,-3.15
2015-09-23T02:38:51.660Z,-3.21
2015-09-23T02:39:04.054Z,-3.18
2015-09-23T02:39:16.460Z,-3.19
2015-09-23T02:39:28.867Z,-3.18
2015-09-23T02:39:41.257Z,-3.24
2015-09-23T02:39:53.679Z,-3.22
2015-09-23T02:40:06.103Z,-3.12
2015-09-23T02:40:18.494Z,-3.18
2015-09-23T02:40:30.884Z,-3.19
2015-09-23T02:40:43.275Z,-3.25
2015-09-23T02:40:55.669Z,-3.22
2015-09-23T02:41:08.076Z,-3.22
2015-09-23T02:41:20.466Z,-3.22
2015-09-23T02:41:32.888Z,-3.18
2015-09-23T02:41:45.279Z,-3.18
2015-09-23T02:41:57.718Z,-3.22
2015-09-23T02:42:10.156Z,-3.21